Cebollar, Argentina
Current Conditions -  °F | °C
As of 3:00 AM on Monday 22 Dec 2014 (Local Time) from SANT Reporting Station
Drizzle Drizzle  
Wind Chill: 61°   Ceiling: 1200
Heat Index: 61°   Visibility: 1.8mi
Dew Point: 57°   Wind: 9mph
Humidity: 88%   Direction: 230°SW
Pressure: 30.09"   Gusts: NA
Location:  29.13°S, 66.88°W
Report Text: SANT 220600Z 23008KT 3000 -DZ BR SCT006BKN012 OVC030 16/14 Q1019
Loading
Personal Weather Stations






























Interactive Weather Map New forecast layout! Learn more

10-Day Weather Forecast

Advertisements
Track Severe Weather on mobile